sensor_id;sensor_type;location;lat;lon;timestamp;pressure;altitude;pressure_sealevel;temperature;humidity
60583;BME280;46415;47.536;19.066;2023-12-29T00:00:07;-18253.28;;;0.87;100.00
60583;BME280;46415;47.536;19.066;2023-12-29T00:03:12;-18253.69;;;0.89;100.00
60583;BME280;46415;47.536;19.066;2023-12-29T00:06:15;-18254.66;;;0.92;100.00
60583;BME280;46415;47.536;19.066;2023-12-29T00:09:18;-18254.50;;;0.92;100.00
60583;BME280;46415;47.536;19.066;2023-12-29T00:12:23;-18253.97;;;0.90;100.00
60583;BME280;46415;47.536;19.066;2023-12-29T00:15:26;-18252.72;;;0.85;100.00
60583;BME280;46415;47.536;19.066;2023-12-29T00:18:29;-18253.13;;;0.87;100.00
60583;BME280;46415;47.536;19.066;2023-12-29T00:21:32;-18253.81;;;0.89;100.00
60583;BME280;46415;47.536;19.066;2023-12-29T00:24:35;-18252.72;;;0.85;100.00
60583;BME280;46415;47.536;19.066;2023-12-29T00:27:38;-18253.41;;;0.88;100.00
60583;BME280;46415;47.536;19.066;2023-12-29T00:30:41;-18253.13;;;0.87;100.00
60583;BME280;46415;47.536;19.066;2023-12-29T00:34:01;-18253.81;;;0.89;100.00
60583;BME280;46415;47.536;19.066;2023-12-29T00:37:04;-18256.59;;;0.99;100.00
60583;BME280;46415;47.536;19.066;2023-12-29T00:40:08;-18259.34;;;1.09;100.00
60583;BME280;46415;47.536;19.066;2023-12-29T00:43:11;-18259.62;;;1.10;100.00
60583;BME280;46415;47.536;19.066;2023-12-29T00:46:14;-18260.31;;;1.13;100.00
60583;BME280;46415;47.536;19.066;2023-12-29T00:49:18;-18259.06;;;1.08;100.00
60583;BME280;46415;47.536;19.066;2023-12-29T00:52:21;-18258.09;;;1.05;100.00
60583;BME280;46415;47.536;19.066;2023-12-29T00:55:24;-18258.09;;;1.05;100.00
60583;BME280;46415;47.536;19.066;2023-12-29T00:58:27;-18259.62;;;1.10;100.00
60583;BME280;46415;47.536;19.066;2023-12-29T01:01:33;-18258.50;;;1.06;100.00
60583;BME280;46415;47.536;19.066;2023-12-29T01:04:38;-18258.09;;;1.05;100.00
60583;BME280;46415;47.536;19.066;2023-12-29T01:07:42;-18258.50;;;1.06;100.00
60583;BME280;46415;47.536;19.066;2023-12-29T01:10:45;-18259.62;;;1.10;100.00
60583;BME280;46415;47.536;19.066;2023-12-29T01:13:47;-18259.06;;;1.08;100.00
60583;BME280;46415;47.536;19.066;2023-12-29T01:16:52;-18257.28;;;1.02;100.00
60583;BME280;46415;47.536;19.066;2023-12-29T01:19:54;-18258.09;;;1.05;100.00
60583;BME280;46415;47.536;19.066;2023-12-29T01:22:58;-18258.09;;;1.05;100.00
60583;BME280;46415;47.536;19.066;2023-12-29T01:26:00;-18260.16;;;1.12;100.00
60583;BME280;46415;47.536;19.066;2023-12-29T01:29:04;-18259.47;;;1.10;100.00
60583;BME280;46415;47.536;19.066;2023-12-29T01:32:07;-18259.34;;;1.09;100.00
60583;BME280;46415;47.536;19.066;2023-12-29T01:35:11;-18260.72;;;1.14;100.00
60583;BME280;46415;47.536;19.066;2023-12-29T01:38:13;-18259.75;;;1.11;100.00
60583;BME280;46415;47.536;19.066;2023-12-29T01:41:18;-18258.78;;;1.07;100.00
60583;BME280;46415;47.536;19.066;2023-12-29T01:44:22;-18257.97;;;1.04;100.00
60583;BME280;46415;47.536;19.066;2023-12-29T01:47:25;-18257.41;;;1.02;100.00
60583;BME280;46415;47.536;19.066;2023-12-29T01:50:29;-18257.53;;;1.03;100.00
60583;BME280;46415;47.536;19.066;2023-12-29T01:53:32;-18257.41;;;1.02;100.00
60583;BME280;46415;47.536;19.066;2023-12-29T01:56:48;-18257.97;;;1.04;100.00
60583;BME280;46415;47.536;19.066;2023-12-29T01:59:52;-18256.16;;;0.98;100.00
60583;BME280;46415;47.536;19.066;2023-12-29T02:02:55;-18256.03;;;0.97;100.00
60583;BME280;46415;47.536;19.066;2023-12-29T02:05:58;-18256.31;;;0.98;100.00
60583;BME280;46415;47.536;19.066;2023-12-29T02:09:01;-18257.97;;;1.04;100.00
60583;BME280;46415;47.536;19.066;2023-12-29T02:12:05;-18258.78;;;1.07;100.00
60583;BME280;46415;47.536;19.066;2023-12-29T02:15:08;-18260.03;;;1.12;100.00
60583;BME280;46415;47.536;19.066;2023-12-29T02:18:12;-18260.44;;;1.13;100.00
60583;BME280;46415;47.536;19.066;2023-12-29T02:21:20;-18260.72;;;1.14;100.00
60583;BME280;46415;47.536;19.066;2023-12-29T02:24:26;-18261.00;;;1.15;100.00
60583;BME280;46415;47.536;19.066;2023-12-29T02:33:53;-18261.13;;;1.16;100.00
60583;BME280;46415;47.536;19.066;2023-12-29T02:36:56;-18260.44;;;1.13;100.00
60583;BME280;46415;47.536;19.066;2023-12-29T02:40:00;-18260.16;;;1.12;100.00
60583;BME280;46415;47.536;19.066;2023-12-29T02:43:04;-18259.62;;;1.10;100.00
60583;BME280;46415;47.536;19.066;2023-12-29T02:46:07;-18259.91;;;1.11;100.00
60583;BME280;46415;47.536;19.066;2023-12-29T02:49:09;-18264.16;;;1.27;100.00
60583;BME280;46415;47.536;19.066;2023-12-29T02:52:15;-18263.75;;;1.26;100.00
60583;BME280;46415;47.536;19.066;2023-12-29T02:55:18;-18265.13;;;1.31;100.00
60583;BME280;46415;47.536;19.066;2023-12-29T02:58:21;-18263.63;;;1.25;100.00
60583;BME280;46415;47.536;19.066;2023-12-29T03:01:24;-18262.66;;;1.21;100.00
60583;BME280;46415;47.536;19.066;2023-12-29T03:04:27;-18262.22;;;1.20;100.00
60583;BME280;46415;47.536;19.066;2023-12-29T03:07:30;-18261.81;;;1.18;100.00
60583;BME280;46415;47.536;19.066;2023-12-29T03:10:32;-18261.13;;;1.16;100.00
60583;BME280;46415;47.536;19.066;2023-12-29T03:13:38;-18263.88;;;1.26;100.00
60583;BME280;46415;47.536;19.066;2023-12-29T03:16:40;-18265.13;;;1.31;100.00
60583;BME280;46415;47.536;19.066;2023-12-29T03:19:43;-18266.09;;;1.34;100.00
60583;BME280;46415;47.536;19.066;2023-12-29T03:22:47;-18264.31;;;1.28;100.00
60583;BME280;46415;47.536;19.066;2023-12-29T03:25:49;-18265.69;;;1.33;100.00
60583;BME280;46415;47.536;19.066;2023-12-29T03:28:52;-18266.50;;;1.36;100.00
60583;BME280;46415;47.536;19.066;2023-12-29T03:31:55;-18266.91;;;1.37;100.00
60583;BME280;46415;47.536;19.066;2023-12-29T03:34:57;-18266.22;;;1.35;100.00
60583;BME280;46415;47.536;19.066;2023-12-29T03:38:01;-18263.75;;;1.26;100.00
60583;BME280;46415;47.536;19.066;2023-12-29T03:41:05;-18264.16;;;1.27;100.00
60583;BME280;46415;47.536;19.066;2023-12-29T03:44:07;-18263.34;;;1.24;100.00
60583;BME280;46415;47.536;19.066;2023-12-29T03:47:10;-18263.47;;;1.25;100.00
60583;BME280;46415;47.536;19.066;2023-12-29T03:50:13;-18262.09;;;1.19;100.00
60583;BME280;46415;47.536;19.066;2023-12-29T03:53:16;-18261.13;;;1.16;100.00
60583;BME280;46415;47.536;19.066;2023-12-29T03:56:18;-18266.91;;;1.37;100.00
60583;BME280;46415;47.536;19.066;2023-12-29T03:59:21;-18261.97;;;1.19;100.00
60583;BME280;46415;47.536;19.066;2023-12-29T04:02:24;-18257.97;;;1.04;100.00
60583;BME280;46415;47.536;19.066;2023-12-29T04:05:27;-18258.78;;;1.07;100.00
60583;BME280;46415;47.536;19.066;2023-12-29T04:08:29;-18257.97;;;1.04;100.00
60583;BME280;46415;47.536;19.066;2023-12-29T04:11:32;-18257.41;;;1.02;100.00
60583;BME280;46415;47.536;19.066;2023-12-29T04:14:35;-18255.75;;;0.96;100.00
60583;BME280;46415;47.536;19.066;2023-12-29T04:17:38;-18253.41;;;0.88;100.00
60583;BME280;46415;47.536;19.066;2023-12-29T04:20:41;-18255.75;;;0.96;100.00
60583;BME280;46415;47.536;19.066;2023-12-29T04:23:46;-18252.72;;;0.85;100.00
60583;BME280;46415;47.536;19.066;2023-12-29T04:26:49;-18253.00;;;0.86;100.00
60583;BME280;46415;47.536;19.066;2023-12-29T04:29:51;-18251.91;;;0.82;100.00
60583;BME280;46415;47.536;19.066;2023-12-29T04:32:54;-18249.69;;;0.74;100.00
60583;BME280;46415;47.536;19.066;2023-12-29T04:35:57;-18249.13;;;0.72;100.00
60583;BME280;46415;47.536;19.066;2023-12-29T04:39:00;-18254.50;;;0.92;100.00
60583;BME280;46415;47.536;19.066;2023-12-29T04:42:02;-18252.19;;;0.83;100.00
60583;BME280;46415;47.536;19.066;2023-12-29T04:45:05;-18252.03;;;0.82;100.00
60583;BME280;46415;47.536;19.066;2023-12-29T04:48:07;-18252.44;;;0.84;100.00
60583;BME280;46415;47.536;19.066;2023-12-29T04:51:10;-18249.41;;;0.73;100.00
60583;BME280;46415;47.536;19.066;2023-12-29T04:54:13;-18252.03;;;0.82;100.00
60583;BME280;46415;47.536;19.066;2023-12-29T04:57:16;-18248.03;;;0.68;100.00
60583;BME280;46415;47.536;19.066;2023-12-29T05:00:18;-18245.56;;;0.59;100.00
60583;BME280;46415;47.536;19.066;2023-12-29T05:03:21;-18248.87;;;0.71;100.00
60583;BME280;46415;47.536;19.066;2023-12-29T05:06:23;-18246.53;;;0.62;100.00
60583;BME280;46415;47.536;19.066;2023-12-29T05:09:26;-18247.06;;;0.64;100.00
60583;BME280;46415;47.536;19.066;2023-12-29T05:12:29;-18247.34;;;0.65;100.00
60583;BME280;46415;47.536;19.066;2023-12-29T05:15:32;-18247.91;;;0.67;100.00
60583;BME280;46415;47.536;19.066;2023-12-29T05:18:35;-18247.34;;;0.65;100.00
60583;BME280;46415;47.536;19.066;2023-12-29T05:21:37;-18248.59;;;0.70;100.00
60583;BME280;46415;47.536;19.066;2023-12-29T05:24:41;-18251.63;;;0.81;100.00
60583;BME280;46415;47.536;19.066;2023-12-29T05:27:44;-18255.22;;;0.94;100.00
60583;BME280;46415;47.536;19.066;2023-12-29T05:30:47;-18256.44;;;0.99;100.00
60583;BME280;46415;47.536;19.066;2023-12-29T05:33:50;-18253.00;;;0.86;100.00
60583;BME280;46415;47.536;19.066;2023-12-29T05:36:53;-18253.81;;;0.89;100.00
60583;BME280;46415;47.536;19.066;2023-12-29T05:39:56;-18251.75;;;0.81;100.00
60583;BME280;46415;47.536;19.066;2023-12-29T05:42:59;-18253.28;;;0.87;100.00
60583;BME280;46415;47.536;19.066;2023-12-29T05:46:01;-18255.22;;;0.94;100.00
60583;BME280;46415;47.536;19.066;2023-12-29T05:49:04;-18256.44;;;0.99;100.00
60583;BME280;46415;47.536;19.066;2023-12-29T05:52:07;-18258.09;;;1.05;100.00
60583;BME280;46415;47.536;19.066;2023-12-29T05:55:10;-18257.69;;;1.03;100.00
60583;BME280;46415;47.536;19.066;2023-12-29T05:58:13;-18256.44;;;0.99;100.00
60583;BME280;46415;47.536;19.066;2023-12-29T06:01:16;-18256.59;;;0.99;100.00
60583;BME280;46415;47.536;19.066;2023-12-29T06:04:19;-18257.41;;;1.02;100.00
60583;BME280;46415;47.536;19.066;2023-12-29T06:07:21;-18260.44;;;1.13;100.00
60583;BME280;46415;47.536;19.066;2023-12-29T06:10:24;-18259.19;;;1.09;100.00
60583;BME280;46415;47.536;19.066;2023-12-29T06:13:27;-18257.97;;;1.04;100.00
60583;BME280;46415;47.536;19.066;2023-12-29T06:16:30;-18260.59;;;1.14;100.00
60583;BME280;46415;47.536;19.066;2023-12-29T06:19:32;-18260.59;;;1.14;100.00
60583;BME280;46415;47.536;19.066;2023-12-29T06:22:39;-18258.50;;;1.06;100.00
60583;BME280;46415;47.536;19.066;2023-12-29T06:25:42;-18257.81;;;1.04;100.00
60583;BME280;46415;47.536;19.066;2023-12-29T06:28:45;-18257.13;;;1.01;100.00
60583;BME280;46415;47.536;19.066;2023-12-29T06:31:48;-18258.09;;;1.05;100.00
60583;BME280;46415;47.536;19.066;2023-12-29T06:34:51;-18258.38;;;1.06;100.00
60583;BME280;46415;47.536;19.066;2023-12-29T06:37:54;-18257.97;;;1.04;100.00
60583;BME280;46415;47.536;19.066;2023-12-29T06:40:57;-18257.28;;;1.02;100.00
60583;BME280;46415;47.536;19.066;2023-12-29T06:43:59;-18258.38;;;1.06;100.00
60583;BME280;46415;47.536;19.066;2023-12-29T06:47:02;-18257.41;;;1.02;100.00
60583;BME280;46415;47.536;19.066;2023-12-29T06:50:07;-18258.94;;;1.08;100.00
60583;BME280;46415;47.536;19.066;2023-12-29T06:53:14;-18259.91;;;1.11;100.00
60583;BME280;46415;47.536;19.066;2023-12-29T06:56:17;-18260.16;;;1.12;100.00
60583;BME280;46415;47.536;19.066;2023-12-29T06:59:22;-18261.00;;;1.15;100.00
60583;BME280;46415;47.536;19.066;2023-12-29T07:02:24;-18259.91;;;1.11;100.00
60583;BME280;46415;47.536;19.066;2023-12-29T07:05:27;-18262.38;;;1.20;100.00
60583;BME280;46415;47.536;19.066;2023-12-29T07:08:30;-18261.00;;;1.15;100.00
60583;BME280;46415;47.536;19.066;2023-12-29T07:11:33;-18262.38;;;1.20;100.00
60583;BME280;46415;47.536;19.066;2023-12-29T07:14:35;-18262.50;;;1.21;100.00
60583;BME280;46415;47.536;19.066;2023-12-29T07:17:38;-18264.59;;;1.29;100.00
60583;BME280;46415;47.536;19.066;2023-12-29T07:20:41;-18267.19;;;1.38;100.00
60583;BME280;46415;47.536;19.066;2023-12-29T07:23:45;-18269.81;;;1.48;100.00
60583;BME280;46415;47.536;19.066;2023-12-29T07:26:47;-18273.41;;;1.61;100.00
60583;BME280;46415;47.536;19.066;2023-12-29T07:29:50;-18271.19;;;1.53;100.00
60583;BME280;46415;47.536;19.066;2023-12-29T07:32:53;-18273.53;;;1.61;100.00
60583;BME280;46415;47.536;19.066;2023-12-29T07:35:56;-18272.31;;;1.57;100.00
60583;BME280;46415;47.536;19.066;2023-12-29T07:38:59;-18273.94;;;1.63;100.00
60583;BME280;46415;47.536;19.066;2023-12-29T07:42:01;-18273.94;;;1.63;100.00
60583;BME280;46415;47.536;19.066;2023-12-29T07:45:07;-18274.38;;;1.64;100.00
60583;BME280;46415;47.536;19.066;2023-12-29T07:48:11;-18276.84;;;1.74;100.00
60583;BME280;46415;47.536;19.066;2023-12-29T07:51:14;-18280.00;;;1.85;100.00
60583;BME280;46415;47.536;19.066;2023-12-29T07:54:18;-18280.44;;;1.87;100.00
60583;BME280;46415;47.536;19.066;2023-12-29T07:57:21;-18284.28;;;2.01;100.00
60583;BME280;46415;47.536;19.066;2023-12-29T08:00:24;-18289.13;;;2.19;100.00
60583;BME280;46415;47.536;19.066;2023-12-29T08:03:26;-18292.97;;;2.33;100.00
60583;BME280;46415;47.536;19.066;2023-12-29T08:06:29;-18298.06;;;2.52;100.00
60583;BME280;46415;47.536;19.066;2023-12-29T08:09:31;-18298.62;;;2.54;100.00
60583;BME280;46415;47.536;19.066;2023-12-29T08:12:34;-18299.44;;;2.57;100.00
60583;BME280;46415;47.536;19.066;2023-12-29T08:15:38;-18300.81;;;2.62;100.00
60583;BME280;46415;47.536;19.066;2023-12-29T08:18:42;-18299.84;;;2.58;100.00
60583;BME280;46415;47.536;19.066;2023-12-29T08:21:44;-18302.59;;;2.68;100.00
60583;BME280;46415;47.536;19.066;2023-12-29T08:24:47;-18298.91;;;2.55;100.00
60583;BME280;46415;47.536;19.066;2023-12-29T08:27:50;-18302.06;;;2.66;100.00
60583;BME280;46415;47.536;19.066;2023-12-29T08:30:52;-18301.78;;;2.65;100.00
60583;BME280;46415;47.536;19.066;2023-12-29T08:33:55;-18302.06;;;2.66;100.00
60583;BME280;46415;47.536;19.066;2023-12-29T08:36:58;-18301.50;;;2.64;100.00
60583;BME280;46415;47.536;19.066;2023-12-29T08:40:01;-18304.00;;;2.73;100.00
60583;BME280;46415;47.536;19.066;2023-12-29T08:43:04;-18308.13;;;2.88;100.00
60583;BME280;46415;47.536;19.066;2023-12-29T08:46:07;-18311.41;;;3.01;100.00
60583;BME280;46415;47.536;19.066;2023-12-29T08:49:10;-18314.03;;;3.10;100.00
60583;BME280;46415;47.536;19.066;2023-12-29T08:52:13;-18316.53;;;3.19;100.00
60583;BME280;46415;47.536;19.066;2023-12-29T08:55:16;-18319.97;;;3.32;100.00
60583;BME280;46415;47.536;19.066;2023-12-29T08:58:19;-18321.88;;;3.39;100.00
60583;BME280;46415;47.536;19.066;2023-12-29T09:01:22;-18323.00;;;3.43;100.00
60583;BME280;46415;47.536;19.066;2023-12-29T09:04:24;-18330.16;;;3.69;100.00
60583;BME280;46415;47.536;19.066;2023-12-29T09:07:28;-18327.38;;;3.59;100.00
60583;BME280;46415;47.536;19.066;2023-12-29T09:10:32;-18339.66;;;4.04;100.00
60583;BME280;46415;47.536;19.066;2023-12-29T09:13:35;-18350.22;;;4.43;100.00
60583;BME280;46415;47.536;19.066;2023-12-29T09:16:38;-18354.78;;;4.60;100.00
60583;BME280;46415;47.536;19.066;2023-12-29T09:19:44;-18352.44;;;4.51;100.00
60583;BME280;46415;47.536;19.066;2023-12-29T09:22:53;-18354.78;;;4.60;100.00
60583;BME280;46415;47.536;19.066;2023-12-29T09:25:56;-18356.84;;;4.68;100.00
60583;BME280;46415;47.536;19.066;2023-12-29T09:28:59;-18354.50;;;4.59;100.00
60583;BME280;46415;47.536;19.066;2023-12-29T09:32:02;-18351.06;;;4.46;100.00
60583;BME280;46415;47.536;19.066;2023-12-29T09:35:05;-18342.94;;;4.17;100.00
60583;BME280;46415;47.536;19.066;2023-12-29T09:38:08;-18345.28;;;4.25;100.00
60583;BME280;46415;47.536;19.066;2023-12-29T09:41:13;-18348.03;;;4.35;100.00
60583;BME280;46415;47.536;19.066;2023-12-29T09:44:16;-18349.28;;;4.40;100.00
60583;BME280;46415;47.536;19.066;2023-12-29T09:47:23;-18345.41;;;4.26;100.00
60583;BME280;46415;47.536;19.066;2023-12-29T09:50:26;-18342.81;;;4.16;100.00
60583;BME280;46415;47.536;19.066;2023-12-29T09:53:29;-18345.00;;;4.24;100.00
60583;BME280;46415;47.536;19.066;2023-12-29T09:56:32;-18346.78;;;4.31;100.00
60583;BME280;46415;47.536;19.066;2023-12-29T09:59:35;-18344.19;;;4.21;100.00
60583;BME280;46415;47.536;19.066;2023-12-29T10:02:40;-18346.37;;;4.29;100.00
60583;BME280;46415;47.536;19.066;2023-12-29T10:05:48;-18343.91;;;4.20;100.00
60583;BME280;46415;47.536;19.066;2023-12-29T10:08:53;-18347.34;;;4.33;100.00
60583;BME280;46415;47.536;19.066;2023-12-29T10:11:55;-18347.22;;;4.32;100.00
60583;BME280;46415;47.536;19.066;2023-12-29T10:21:09;-18359.03;;;4.76;100.00
60583;BME280;46415;47.536;19.066;2023-12-29T10:27:17;-18364.00;;;4.94;100.00
60583;BME280;46415;47.536;19.066;2023-12-29T10:30:20;-18370.44;;;5.18;100.00
60583;BME280;46415;47.536;19.066;2023-12-29T10:33:35;-18369.50;;;5.14;100.00
60583;BME280;46415;47.536;19.066;2023-12-29T10:36:48;-18371.41;;;5.21;100.00
60583;BME280;46415;47.536;19.066;2023-12-29T10:39:55;-18373.63;;;5.29;100.00
60583;BME280;46415;47.536;19.066;2023-12-29T10:42:59;-18373.47;;;5.29;100.00
60583;BME280;46415;47.536;19.066;2023-12-29T10:46:07;-18369.75;;;5.15;100.00
60583;BME280;46415;47.536;19.066;2023-12-29T10:49:13;-18373.06;;;5.27;100.00
60583;BME280;46415;47.536;19.066;2023-12-29T10:52:16;-18376.38;;;5.40;100.00
60583;BME280;46415;47.536;19.066;2023-12-29T10:55:20;-18373.75;;;5.30;100.00
60583;BME280;46415;47.536;19.066;2023-12-29T10:58:26;-18372.94;;;5.27;100.00
60583;BME280;46415;47.536;19.066;2023-12-29T11:01:34;-18371.81;;;5.23;100.00
60583;BME280;46415;47.536;19.066;2023-12-29T11:04:38;-18373.63;;;5.29;100.00
60583;BME280;46415;47.536;19.066;2023-12-29T11:07:42;-18375.53;;;5.37;100.00
60583;BME280;46415;47.536;19.066;2023-12-29T11:10:44;-18378.84;;;5.49;100.00
60583;BME280;46415;47.536;19.066;2023-12-29T11:13:48;-18379.94;;;5.53;100.00
60583;BME280;46415;47.536;19.066;2023-12-29T11:16:51;-18381.59;;;5.59;100.00
60583;BME280;46415;47.536;19.066;2023-12-29T11:19:54;-18379.94;;;5.53;100.00
60583;BME280;46415;47.536;19.066;2023-12-29T11:22:58;-18374.16;;;5.31;100.00
60583;BME280;46415;47.536;19.066;2023-12-29T11:26:01;-18376.38;;;5.40;100.00
60583;BME280;46415;47.536;19.066;2023-12-29T11:29:07;-18372.78;;;5.26;100.00
60583;BME280;46415;47.536;19.066;2023-12-29T11:32:18;-18372.78;;;5.26;100.00
60583;BME280;46415;47.536;19.066;2023-12-29T11:35:27;-18371.13;;;5.20;100.00
60583;BME280;46415;47.536;19.066;2023-12-29T11:42:26;-18372.66;;;5.26;100.00
60583;BME280;46415;47.536;19.066;2023-12-29T11:45:24;-18374.56;;;5.33;100.00
60583;BME280;46415;47.536;19.066;2023-12-29T11:51:50;-18376.78;;;5.41;100.00
60583;BME280;46415;47.536;19.066;2023-12-29T11:54:53;-18373.87;;;5.30;100.00
60583;BME280;46415;47.536;19.066;2023-12-29T11:57:56;-18378.69;;;5.48;100.00
60583;BME280;46415;47.536;19.066;2023-12-29T12:00:59;-18379.66;;;5.52;100.00
60583;BME280;46415;47.536;19.066;2023-12-29T12:04:02;-18384.75;;;5.70;100.00
60583;BME280;46415;47.536;19.066;2023-12-29T12:07:05;-18389.16;;;5.87;100.00
60583;BME280;46415;47.536;19.066;2023-12-29T12:13:43;-18397.66;;;6.18;100.00
60583;BME280;46415;47.536;19.066;2023-12-29T12:16:47;-18398.63;;;6.22;100.00
60583;BME280;46415;47.536;19.066;2023-12-29T12:19:50;-18404.53;;;6.43;100.00
60583;BME280;46415;47.536;19.066;2023-12-29T12:22:56;-18411.53;;;6.69;100.00
60583;BME280;46415;47.536;19.066;2023-12-29T12:25:59;-18412.22;;;6.72;100.00
60583;BME280;46415;47.536;19.066;2023-12-29T12:29:04;-18425.13;;;7.19;100.00
60583;BME280;46415;47.536;19.066;2023-12-29T12:32:07;-18431.31;;;7.42;100.00
60583;BME280;46415;47.536;19.066;2023-12-29T12:35:14;-18441.19;;;7.78;100.00
60583;BME280;46415;47.536;19.066;2023-12-29T12:38:21;-18455.19;;;8.30;100.00
60583;BME280;46415;47.536;19.066;2023-12-29T12:41:26;-18462.19;;;8.56;100.00
60583;BME280;46415;47.536;19.066;2023-12-29T12:44:29;-18460.94;;;8.51;100.00
60583;BME280;46415;47.536;19.066;2023-12-29T12:47:42;-18456.41;;;8.35;100.00
60583;BME280;46415;47.536;19.066;2023-12-29T12:50:47;-18448.06;;;8.04;100.00
60583;BME280;46415;47.536;19.066;2023-12-29T12:53:50;-18437.91;;;7.66;100.00
60583;BME280;46415;47.536;19.066;2023-12-29T12:56:54;-18428.97;;;7.33;100.00
60583;BME280;46415;47.536;19.066;2023-12-29T12:59:57;-18424.84;;;7.18;100.00
60583;BME280;46415;47.536;19.066;2023-12-29T13:03:01;-18426.09;;;7.23;100.00
60583;BME280;46415;47.536;19.066;2023-12-29T13:06:05;-18424.31;;;7.16;100.00
60583;BME280;46415;47.536;19.066;2023-12-29T13:09:08;-18422.78;;;7.11;100.00
60583;BME280;46415;47.536;19.066;2023-12-29T13:12:14;-18426.09;;;7.23;100.00
60583;BME280;46415;47.536;19.066;2023-12-29T13:15:18;-18420.47;;;7.02;100.00
60583;BME280;46415;47.536;19.066;2023-12-29T13:18:30;-18419.22;;;6.97;100.00
60583;BME280;46415;47.536;19.066;2023-12-29T13:21:36;-18424.16;;;7.16;100.00
60583;BME280;46415;47.536;19.066;2023-12-29T13:24:42;-18426.50;;;7.24;100.00
60583;BME280;46415;47.536;19.066;2023-12-29T13:27:45;-18422.38;;;7.09;100.00
60583;BME280;46415;47.536;19.066;2023-12-29T13:30:48;-18417.72;;;6.92;100.00
60583;BME280;46415;47.536;19.066;2023-12-29T13:33:56;-18414.00;;;6.78;100.00
60583;BME280;46415;47.536;19.066;2023-12-29T13:37:20;-18414.28;;;6.79;100.00
60583;BME280;46415;47.536;19.066;2023-12-29T13:43:43;-18419.09;;;6.97;100.00
60583;BME280;46415;47.536;19.066;2023-12-29T13:46:48;-18414.84;;;6.81;100.00
60583;BME280;46415;47.536;19.066;2023-12-29T13:49:52;-18415.38;;;6.83;100.00
60583;BME280;46415;47.536;19.066;2023-12-29T13:52:55;-18416.75;;;6.88;100.00
60583;BME280;46415;47.536;19.066;2023-12-29T13:56:07;-18414.84;;;6.81;100.00
60583;BME280;46415;47.536;19.066;2023-12-29T13:59:11;-18414.41;;;6.80;100.00
60583;BME280;46415;47.536;19.066;2023-12-29T14:02:32;-18416.63;;;6.88;100.00
60583;BME280;46415;47.536;19.066;2023-12-29T14:05:56;-18416.34;;;6.87;100.00
60583;BME280;46415;47.536;19.066;2023-12-29T14:09:01;-18417.16;;;6.90;100.00
60583;BME280;46415;47.536;19.066;2023-12-29T14:12:06;-18412.63;;;6.73;100.00
60583;BME280;46415;47.536;19.066;2023-12-29T14:15:09;-18409.63;;;6.62;100.00
60583;BME280;46415;47.536;19.066;2023-12-29T14:21:22;-18403.72;;;6.40;100.00
60583;BME280;46415;47.536;19.066;2023-12-29T14:24:27;-18401.50;;;6.32;100.00
60583;BME280;46415;47.536;19.066;2023-12-29T14:27:30;-18400.41;;;6.28;100.00
60583;BME280;46415;47.536;19.066;2023-12-29T14:30:33;-18396.28;;;6.13;100.00
60583;BME280;46415;47.536;19.066;2023-12-29T14:33:36;-18393.53;;;6.03;100.00
60583;BME280;46415;47.536;19.066;2023-12-29T14:36:40;-18393.97;;;6.04;100.00
60583;BME280;46415;47.536;19.066;2023-12-29T14:39:46;-18390.66;;;5.92;100.00
60583;BME280;46415;47.536;19.066;2023-12-29T14:42:49;-18386.81;;;5.78;100.00
60583;BME280;46415;47.536;19.066;2023-12-29T14:45:52;-18387.34;;;5.80;100.00
60583;BME280;46415;47.536;19.066;2023-12-29T14:48:57;-18380.91;;;5.56;100.00
60583;BME280;46415;47.536;19.066;2023-12-29T14:52:03;-18376.63;;;5.41;100.00
60583;BME280;46415;47.536;19.066;2023-12-29T14:55:06;-18374.44;;;5.32;100.00
60583;BME280;46415;47.536;19.066;2023-12-29T14:58:09;-18372.50;;;5.25;100.00
60583;BME280;46415;47.536;19.066;2023-12-29T15:01:12;-18369.06;;;5.13;100.00
60583;BME280;46415;47.536;19.066;2023-12-29T15:04:14;-18365.50;;;5.00;100.00
60583;BME280;46415;47.536;19.066;2023-12-29T15:07:17;-18364.13;;;4.94;100.00
60583;BME280;46415;47.536;19.066;2023-12-29T15:10:20;-18364.53;;;4.96;100.00
60583;BME280;46415;47.536;19.066;2023-12-29T15:13:23;-18361.94;;;4.86;100.00
60583;BME280;46415;47.536;19.066;2023-12-29T15:16:27;-18358.50;;;4.74;100.00
60583;BME280;46415;47.536;19.066;2023-12-29T15:19:29;-18354.63;;;4.60;100.00
60583;BME280;46415;47.536;19.066;2023-12-29T15:22:32;-18350.50;;;4.44;100.00
60583;BME280;46415;47.536;19.066;2023-12-29T15:25:35;-18349.41;;;4.40;100.00
60583;BME280;46415;47.536;19.066;2023-12-29T15:28:39;-18345.84;;;4.27;100.00
60583;BME280;46415;47.536;19.066;2023-12-29T15:31:42;-18345.28;;;4.25;100.00
60583;BME280;46415;47.536;19.066;2023-12-29T15:34:46;-18346.09;;;4.28;100.00
60583;BME280;46415;47.536;19.066;2023-12-29T15:37:49;-18345.84;;;4.27;100.00
60583;BME280;46415;47.536;19.066;2023-12-29T15:40:51;-18345.84;;;4.27;100.00
60583;BME280;46415;47.536;19.066;2023-12-29T15:43:54;-18343.34;;;4.18;100.00
60583;BME280;46415;47.536;19.066;2023-12-29T15:46:56;-18342.25;;;4.14;100.00
60583;BME280;46415;47.536;19.066;2023-12-29T15:50:00;-18343.06;;;4.17;100.00
60583;BME280;46415;47.536;19.066;2023-12-29T15:53:03;-18342.94;;;4.17;100.00
60583;BME280;46415;47.536;19.066;2023-12-29T15:56:06;-18342.81;;;4.16;100.00
60583;BME280;46415;47.536;19.066;2023-12-29T15:59:08;-18341.69;;;4.12;100.00
60583;BME280;46415;47.536;19.066;2023-12-29T16:02:11;-18341.03;;;4.09;100.00
60583;BME280;46415;47.536;19.066;2023-12-29T16:05:14;-18341.69;;;4.12;100.00
60583;BME280;46415;47.536;19.066;2023-12-29T16:08:17;-18341.97;;;4.13;100.00
60583;BME280;46415;47.536;19.066;2023-12-29T16:14:23;-18340.88;;;4.09;100.00
60583;BME280;46415;47.536;19.066;2023-12-29T16:17:26;-18339.50;;;4.04;100.00
60583;BME280;46415;47.536;19.066;2023-12-29T16:20:28;-18338.25;;;3.99;100.00
60583;BME280;46415;47.536;19.066;2023-12-29T16:23:31;-18337.16;;;3.95;100.00